Time;durP1;ratioP1;P1;durP2;ratioP2;P2;SDS_P1;SDS_P2;PMS_P1;PMS_P2;Temp;Humidity;BMP_temperature;BMP_pressure;BME280_temperature;BME280_humidity;BME280_pressure;Samples;Min_cycle;Max_cycle;Signal;HPM_P1;HPM_P2
2022/10/12 00:01:11;;;;;;;14.10;11.23;;;13.70;99.90;;;16.72;57.27;98278.41;5042062;28;20243;-46
2022/10/12 00:03:39;;;;;;;14.95;11.48;;;13.70;99.90;;;16.69;57.11;98283.31;5042066;28;20112;-46
2022/10/12 00:06:13;;;;;;;20.33;11.30;;;13.60;99.90;;;16.65;57.12;98290.06;5041950;28;20064;-46
2022/10/12 00:08:44;;;;;;;15.95;10.82;;;13.50;99.90;;;16.59;57.26;98285.44;5041405;28;20241;-46
2022/10/12 00:11:19;;;;;;;15.07;10.45;;;13.40;99.90;;;16.54;57.33;98277.94;5040897;28;20060;-46
2022/10/12 00:13:48;;;;;;;19.38;10.30;;;13.40;99.90;;;16.49;57.39;98275.78;5041981;28;20041;-48
2022/10/12 00:16:18;;;;;;;19.75;11.18;;;13.40;99.90;;;16.48;57.48;98270.63;5041736;28;20037;-46
2022/10/12 00:18:57;;;;;;;19.15;10.63;;;13.40;99.90;;;16.47;57.63;98267.06;5042256;28;20041;-45
2022/10/12 00:21:28;;;;;;;15.13;11.05;;;13.40;99.90;;;16.44;57.81;98271.97;5045922;28;20243;-46
2022/10/12 00:24:00;;;;;;;17.90;11.02;;;13.40;99.90;;;16.48;57.63;98278.69;5045724;28;20046;-46
2022/10/12 00:26:28;;;;;;;15.98;11.13;;;13.50;99.90;;;16.47;57.80;98269.75;5045269;28;20049;-48
2022/10/12 00:29:00;;;;;;;16.55;11.80;;;13.40;99.90;;;16.47;57.66;98274.31;5046408;28;20059;-46
2022/10/12 00:31:29;;;;;;;16.40;11.35;;;13.40;99.90;;;16.47;57.40;98279.69;5045342;28;20045;-50
2022/10/12 00:34:01;;;;;;;17.55;11.50;;;13.40;99.90;;;16.44;57.53;98267.47;5045008;28;20053;-48
2022/10/12 00:36:33;;;;;;;17.02;10.55;;;13.40;99.90;;;16.42;57.57;98269.50;5046088;28;20045;-46
2022/10/12 00:39:05;;;;;;;16.38;11.25;;;13.40;99.90;;;16.33;57.29;98266.03;5045173;28;20332;-45
2022/10/12 00:41:37;;;;;;;20.13;12.30;;;13.20;99.90;;;16.26;57.55;98267.78;5045414;28;20047;-46
2022/10/12 00:44:53;;;;;;;15.30;10.98;;;13.20;99.90;;;16.21;57.55;98261.31;5045227;28;20108;-46
2022/10/12 00:47:36;;;;;;;17.13;12.60;;;13.20;99.90;;;16.17;57.55;98273.41;5047021;28;20258;-46
2022/10/12 00:50:28;;;;;;;16.23;12.13;;;13.10;99.90;;;16.09;57.58;98266.25;5043996;28;20268;-46
2022/10/12 00:53:13;;;;;;;19.40;13.50;;;13.00;99.90;;;16.01;57.52;98272.53;5045181;28;20045;-46
2022/10/12 00:55:58;;;;;;;15.82;11.25;;;12.90;99.90;;;15.94;57.56;98267.06;5044942;28;20042;-46
2022/10/12 00:58:30;;;;;;;16.45;11.43;;;12.80;99.90;;;15.88;57.76;98273.16;5044649;28;20045;-47
2022/10/12 01:01:04;;;;;;;16.65;11.30;;;12.80;99.90;;;15.80;57.81;98269.69;5044980;28;20043;-46
2022/10/12 01:03:33;;;;;;;16.48;11.35;;;12.70;99.90;;;15.73;58.04;98272.25;5044649;28;20056;-48
2022/10/12 01:06:02;;;;;;;17.35;12.15;;;12.60;99.90;;;15.67;58.01;98270.25;5044891;28;20049;-46
2022/10/12 01:08:30;;;;;;;18.02;11.75;;;12.60;99.90;;;15.61;58.16;98274.50;5043435;28;20041;-46
2022/10/12 01:10:58;;;;;;;16.33;10.90;;;12.50;99.90;;;15.62;58.17;98283.38;5044657;28;20049;-47
2022/10/12 01:13:26;;;;;;;19.10;11.52;;;12.50;99.90;;;15.57;57.95;98275.88;5045336;28;20045;-46
2022/10/12 01:16:28;;;;;;;21.60;11.82;;;12.50;99.90;;;15.52;57.85;98278.22;5043275;28;20052;-47
2022/10/12 01:19:23;;;;;;;18.92;11.90;;;12.40;99.90;;;15.46;57.90;98273.56;5043309;28;20052;-46
2022/10/12 01:22:06;;;;;;;18.33;11.65;;;12.30;99.90;;;15.36;57.95;98263.91;5040340;28;20042;-46
2022/10/12 01:25:21;;;;;;;18.02;11.23;;;12.20;99.90;;;15.29;57.99;98268.28;5023761;28;20344;-46
2022/10/12 01:27:59;;;;;;;19.27;11.75;;;12.20;99.90;;;15.27;58.21;98269.50;5029357;28;20056;-47
2022/10/12 01:30:35;;;;;;;18.67;12.10;;;12.10;99.90;;;15.20;58.28;98269.38;5022352;28;20251;-48
2022/10/12 01:33:24;;;;;;;21.95;11.38;;;12.10;99.90;;;15.16;58.37;98268.06;5023538;28;20058;-47
2022/10/12 01:36:08;;;;;;;18.98;11.55;;;12.00;99.90;;;15.10;58.38;98260.69;5024263;28;20041;-46
2022/10/12 01:38:58;;;;;;;24.25;11.95;;;12.00;99.90;;;15.03;58.30;98260.56;5023176;28;20252;-47
2022/10/12 01:41:53;;;;;;;19.50;11.13;;;11.90;99.90;;;15.01;58.57;98262.56;5024888;28;20050;-50
2022/10/12 01:44:24;;;;;;;16.95;12.50;;;11.90;99.90;;;14.99;58.40;98258.41;5026710;28;20057;-47
2022/10/12 01:46:54;;;;;;;20.38;12.48;;;11.90;99.90;;;14.97;58.57;98253.22;5023730;28;20060;-46
2022/10/12 01:49:26;;;;;;;22.23;12.15;;;11.90;99.90;;;14.94;58.56;98250.88;5024310;28;20042;-47
2022/10/12 01:52:23;;;;;;;19.95;12.05;;;11.90;99.90;;;14.94;58.20;98257.06;5023174;28;20060;-46
2022/10/12 01:55:10;;;;;;;18.77;11.60;;;11.90;99.90;;;14.92;58.42;98256.41;5023320;28;20054;-49
2022/10/12 01:58:08;;;;;;;22.85;13.00;;;11.80;99.90;;;14.88;58.37;98257.75;5024955;28;20049;-46
2022/10/12 02:01:07;;;;;;;18.83;12.65;;;11.80;99.90;;;14.83;58.39;98253.94;5024193;28;20052;-48
2022/10/12 02:04:02;;;;;;;16.45;11.25;;;11.70;99.90;;;14.88;58.41;98254.25;5026652;28;20368;-48
2022/10/12 02:06:45;;;;;;;14.73;11.18;;;11.80;99.90;;;14.94;58.44;98257.06;5022370;28;20053;-47
2022/10/12 02:09:29;;;;;;;16.80;11.25;;;11.80;99.90;;;14.99;58.55;98251.19;5022924;28;20359;-46
2022/10/12 02:12:21;;;;;;;16.45;11.75;;;11.90;99.90;;;14.99;58.51;98245.84;5023278;28;20060;-49
2022/10/12 02:14:56;;;;;;;18.85;11.88;;;11.90;99.90;;;14.99;58.69;98248.50;5022922;28;20239;-46
2022/10/12 02:21:33;;;;;;;20.13;11.30;;;12.00;99.90;;;15.06;58.79;98251.31;5040574;28;20327;-49
2022/10/12 02:24:07;;;;;;;19.05;12.70;;;11.90;99.90;;;15.08;58.78;98249.28;5043674;28;20050;-50
2022/10/12 02:26:40;;;;;;;17.00;12.50;;;12.00;99.90;;;15.11;58.81;98249.78;5043166;28;20045;-49
2022/10/12 02:29:14;;;;;;;17.20;12.35;;;12.00;99.90;;;15.16;58.79;98250.09;5042411;28;20045;-47
2022/10/12 02:32:26;;;;;;;19.90;12.75;;;12.00;99.90;;;15.15;58.66;98245.75;5042053;28;20041;-46
2022/10/12 02:35:31;;;;;;;18.35;12.25;;;12.10;99.90;;;15.22;58.79;98243.22;5043394;28;20045;-50
2022/10/12 02:38:10;;;;;;;15.95;11.23;;;12.20;99.90;;;15.27;58.76;98240.81;5041754;28;20046;-48
2022/10/12 02:41:17;;;;;;;19.65;11.55;;;12.10;99.90;;;15.28;58.91;98238.97;5042085;28;20263;-50
2022/10/12 02:43:56;;;;;;;16.15;11.77;;;12.20;99.90;;;15.32;58.41;98246.50;5033923;28;20062;-48
2022/10/12 02:46:26;;;;;;;17.83;10.65;;;12.20;99.90;;;15.34;58.92;98239.09;5041834;28;20239;-48
2022/10/12 02:48:57;;;;;;;18.40;11.68;;;12.30;99.90;;;15.36;59.00;98237.06;5042100;28;20075;-51
2022/10/12 02:51:30;;;;;;;16.17;11.82;;;12.30;99.90;;;15.40;59.04;98245.59;5042028;28;20049;-50
2022/10/12 02:53:58;;;;;;;18.42;12.38;;;12.30;99.90;;;15.46;59.06;98238.69;5041862;28;20236;-48
2022/10/12 02:56:26;;;;;;;18.65;12.00;;;12.40;99.90;;;15.51;59.11;98234.47;5040907;28;20235;-48
2022/10/12 02:58:54;;;;;;;16.83;11.65;;;12.50;99.90;;;15.58;59.02;98236.44;5042648;28;20052;-49
2022/10/12 03:01:22;;;;;;;17.50;12.02;;;12.60;99.90;;;15.62;58.84;98237.75;5042374;28;20064;-50
2022/10/12 03:03:50;;;;;;;17.35;11.48;;;12.60;99.90;;;15.62;58.79;98238.56;5041346;28;20049;-50
2022/10/12 03:06:19;;;;;;;16.65;11.75;;;12.60;99.90;;;15.63;58.70;98242.13;5042449;28;20268;-48
2022/10/12 03:08:46;;;;;;;18.67;11.45;;;12.50;99.90;;;15.64;58.90;98247.28;5041972;28;20232;-50
2022/10/12 03:11:14;;;;;;;18.58;12.57;;;12.50;99.90;;;15.63;58.92;98247.47;5042635;28;20060;-50
2022/10/12 03:13:42;;;;;;;15.75;10.93;;;12.50;99.90;;;15.65;59.03;98240.91;5042560;28;20248;-46
2022/10/12 03:16:11;;;;;;;20.15;12.23;;;12.50;99.90;;;15.69;58.92;98244.06;5042924;28;20051;-45
2022/10/12 03:18:39;;;;;;;17.63;11.98;;;12.60;99.90;;;15.71;58.95;98239.34;5041981;28;20227;-46
2022/10/12 03:21:07;;;;;;;18.90;12.23;;;12.70;99.90;;;15.71;58.90;98244.72;5042346;28;20041;-48
2022/10/12 03:23:35;;;;;;;20.70;14.27;;;12.70;99.90;;;15.68;59.20;98237.88;5042734;28;20250;-48
2022/10/12 03:26:05;;;;;;;24.33;15.88;;;12.60;99.90;;;15.67;59.32;98238.06;5042423;28;20041;-49
2022/10/12 03:28:33;;;;;;;24.98;14.40;;;12.60;99.90;;;15.71;59.15;98242.88;5041928;28;20051;-48
2022/10/12 03:31:01;;;;;;;22.13;14.77;;;12.70;99.90;;;15.74;59.17;98234.50;5042395;28;20045;-48
2022/10/12 03:33:29;;;;;;;22.88;15.18;;;12.70;99.90;;;15.80;59.00;98240.16;5042247;28;20045;-48
2022/10/12 03:35:58;;;;;;;21.15;14.00;;;12.70;99.90;;;15.78;58.83;98237.66;5041988;28;20057;-48
2022/10/12 03:38:26;;;;;;;22.05;14.45;;;12.70;99.90;;;15.76;59.12;98234.34;5042085;28;20059;-48
2022/10/12 03:40:54;;;;;;;24.02;14.20;;;12.70;99.90;;;15.74;59.12;98234.50;5042323;28;20340;-49
2022/10/12 03:43:22;;;;;;;22.38;14.82;;;12.70;99.90;;;15.69;59.14;98233.34;5042379;28;20057;-48
2022/10/12 03:45:51;;;;;;;20.77;13.85;;;12.60;99.90;;;15.67;59.29;98232.69;5042503;28;20043;-49
2022/10/12 03:48:19;;;;;;;28.88;17.98;;;12.60;99.90;;;15.69;59.21;98230.66;5038757;28;20239;-49
2022/10/12 03:50:51;;;;;;;42.20;24.02;;;12.60;99.90;;;15.71;59.12;98237.50;5041528;28;20344;-50
2022/10/12 03:53:20;;;;;;;38.10;22.52;;;12.60;99.90;;;15.69;59.07;98236.03;5041752;28;20259;-49
2022/10/12 03:55:48;;;;;;;25.65;17.70;;;12.60;99.90;;;15.63;59.20;98237.56;5046548;28;20045;-48
2022/10/12 03:58:16;;;;;;;23.58;16.55;;;12.50;99.90;;;15.59;59.22;98240.81;5045674;28;20273;-48
2022/10/12 04:00:43;;;;;;;31.25;18.67;;;12.50;99.90;;;15.56;59.43;98233.94;5046391;28;20339;-49
2022/10/12 04:03:11;;;;;;;28.33;19.05;;;12.50;99.90;;;15.56;59.46;98225.88;5046703;28;20045;-51
2022/10/12 04:05:39;;;;;;;26.38;16.02;;;12.50;99.90;;;15.51;59.52;98234.47;5046148;28;20339;-48
2022/10/12 04:08:08;;;;;;;22.63;15.95;;;12.40;99.90;;;15.49;59.49;98238.31;5045298;28;20063;-48
2022/10/12 04:10:36;;;;;;;24.30;15.48;;;12.50;99.90;;;15.48;59.53;98242.88;5046065;28;20049;-49
2022/10/12 04:13:03;;;;;;;22.50;14.90;;;12.40;99.90;;;15.48;59.52;98240.19;5045963;28;20049;-47
2022/10/12 04:15:31;;;;;;;22.63;14.48;;;12.50;99.90;;;15.50;59.31;98240.84;5045922;28;20351;-49
2022/10/12 04:17:59;;;;;;;20.92;13.68;;;12.40;99.90;;;15.51;58.99;98242.53;5045542;28;20056;-50
2022/10/12 04:20:27;;;;;;;21.60;14.48;;;12.40;99.90;;;15.52;59.18;98238.81;5045625;28;20055;-48
2022/10/12 04:22:55;;;;;;;23.75;16.17;;;12.40;99.90;;;15.56;59.20;98240.13;5045637;28;20045;-49
2022/10/12 04:25:22;;;;;;;24.38;15.55;;;12.50;99.90;;;15.59;59.25;98241.63;5045707;28;20051;-46
2022/10/12 04:27:56;;;;;;;24.80;15.60;;;12.50;99.90;;;15.64;59.09;98246.44;5045330;28;20053;-50
2022/10/12 04:30:24;;;;;;;22.10;14.57;;;12.50;99.90;;;15.65;59.29;98243.59;5046215;28;20059;-48
2022/10/12 04:32:52;;;;;;;21.80;14.73;;;12.60;99.90;;;15.71;59.22;98240.19;5045515;28;20057;-51
2022/10/12 04:35:20;;;;;;;21.45;14.18;;;12.70;99.90;;;15.73;59.42;98248.09;5046157;28;20059;-50
2022/10/12 04:37:48;;;;;;;21.60;14.52;;;12.70;99.90;;;15.74;59.23;98239.00;5045032;28;20045;-50
2022/10/12 04:40:16;;;;;;;20.10;14.80;;;12.70;99.90;;;15.76;59.39;98247.75;5045473;28;20047;-48
2022/10/12 04:42:44;;;;;;;19.10;12.65;;;12.70;99.90;;;15.80;59.14;98259.81;5045484;28;20052;-48
2022/10/12 04:45:13;;;;;;;18.67;12.80;;;12.70;99.90;;;15.83;59.21;98253.22;5045056;28;20233;-48
2022/10/12 04:47:40;;;;;;;19.40;12.52;;;12.80;99.90;;;15.83;59.19;98256.72;5044820;28;20252;-52
2022/10/12 04:50:09;;;;;;;24.30;14.43;;;12.70;99.90;;;15.86;58.99;98260.94;5045731;28;20064;-47
2022/10/12 04:52:36;;;;;;;19.15;14.75;;;12.70;99.90;;;15.86;59.07;98252.88;5044936;28;20045;-50
2022/10/12 04:55:05;;;;;;;19.92;13.55;;;12.80;99.90;;;15.86;59.09;98255.56;5045190;28;20248;-50
2022/10/12 04:57:33;;;;;;;19.88;13.27;;;12.70;99.90;;;15.88;59.16;98264.28;5044533;28;20048;-50
2022/10/12 05:00:01;;;;;;;17.75;12.25;;;12.70;99.90;;;15.88;58.90;98254.34;5044863;28;20041;-45
2022/10/12 05:02:29;;;;;;;19.23;12.30;;;12.70;99.90;;;15.86;58.88;98264.44;5045740;28;20052;-48
2022/10/12 05:04:57;;;;;;;20.75;12.40;;;12.70;99.90;;;15.84;58.90;98263.78;5044814;28;20037;-48
2022/10/12 05:07:24;;;;;;;20.98;11.75;;;12.70;99.90;;;15.84;58.93;98257.56;5044553;28;20059;-51
2022/10/12 05:09:52;;;;;;;20.30;12.80;;;12.70;99.90;;;15.83;58.98;98255.91;5044879;28;20049;-48
2022/10/12 05:12:20;;;;;;;16.90;11.45;;;12.70;99.90;;;15.84;59.03;98254.88;5044732;28;20056;-48
2022/10/12 05:14:49;;;;;;;20.10;12.73;;;12.70;99.90;;;15.85;59.19;98260.06;5044807;28;20360;-50
2022/10/12 05:17:17;;;;;;;21.25;11.70;;;12.80;99.90;;;15.87;59.10;98265.28;5044275;28;20041;-48
2022/10/12 05:19:45;;;;;;;19.17;11.32;;;12.80;99.90;;;15.90;59.15;98254.19;5045347;28;20049;-48
2022/10/12 05:22:12;;;;;;;18.10;12.85;;;12.80;99.90;;;15.91;59.05;98259.34;5044470;28;20061;-48
2022/10/12 05:24:40;;;;;;;18.02;13.18;;;12.80;99.90;;;15.90;59.03;98256.88;5044558;28;20340;-52
2022/10/12 05:27:08;;;;;;;20.02;12.73;;;12.80;99.90;;;15.90;59.05;98263.06;5044209;28;20041;-51
2022/10/12 05:29:36;;;;;;;23.95;12.65;;;12.80;99.90;;;15.90;59.03;98264.94;5044209;28;20071;-50
2022/10/12 05:32:04;;;;;;;20.75;13.45;;;12.70;99.90;;;15.87;59.16;98254.53;5044453;28;20045;-49
2022/10/12 05:34:32;;;;;;;19.15;12.63;;;12.70;99.90;;;15.87;59.15;98251.84;5043343;28;20051;-49
2022/10/12 05:37:00;;;;;;;21.42;12.75;;;12.70;99.90;;;15.89;59.24;98255.19;5043787;28;20358;-49
2022/10/12 05:39:28;;;;;;;24.73;14.23;;;12.70;99.90;;;15.90;59.08;98252.31;5044330;28;20059;-49
2022/10/12 05:41:56;;;;;;;23.10;13.18;;;12.70;99.90;;;15.89;59.16;98253.31;5044408;28;20055;-46
2022/10/12 05:44:24;;;;;;;23.65;13.95;;;12.70;99.90;;;15.91;59.25;98256.66;5044034;28;20045;-49
2022/10/12 05:46:51;;;;;;;21.05;14.25;;;12.80;99.90;;;15.94;59.07;98259.00;5043672;28;20146;-51
2022/10/12 05:49:19;;;;;;;32.25;16.25;;;12.80;99.90;;;15.97;59.05;98255.09;5059457;28;20057;-49
2022/10/12 05:51:47;;;;;;;21.90;14.30;;;12.90;99.90;;;15.97;59.18;98262.34;5043966;28;20045;-52
2022/10/12 05:54:15;;;;;;;19.70;13.13;;;12.80;99.90;;;15.97;59.23;98262.34;5044171;28;20068;-51
2022/10/12 05:56:43;;;;;;;22.10;14.02;;;12.90;99.90;;;15.98;58.99;98264.84;5044394;28;20067;-50
2022/10/12 05:59:11;;;;;;;21.83;13.60;;;12.90;99.90;;;15.97;59.05;98265.03;5043899;28;20051;-49
2022/10/12 06:01:39;;;;;;;21.50;13.63;;;12.80;99.90;;;15.95;59.30;98262.50;5044352;28;20046;-48
2022/10/12 06:04:07;;;;;;;21.92;13.45;;;12.80;99.90;;;15.97;59.26;98262.34;5043118;28;20075;-50
2022/10/12 06:06:34;;;;;;;23.23;13.73;;;12.90;99.90;;;15.98;58.92;98261.34;5043207;28;20071;-49
2022/10/12 06:09:02;;;;;;;22.33;14.60;;;12.90;99.90;;;15.98;59.00;98266.72;5043667;28;20053;-51
2022/10/12 06:11:30;;;;;;;20.45;13.38;;;12.90;99.90;;;15.98;59.04;98270.22;5043766;28;20053;-51
2022/10/12 06:14:03;;;;;;;17.98;13.20;;;12.90;99.90;;;15.99;58.98;98269.19;5042817;28;20060;-49
2022/10/12 06:16:31;;;;;;;20.65;13.38;;;12.90;99.90;;;16.02;59.01;98270.69;5042727;28;20045;-49
2022/10/12 06:18:59;;;;;;;21.00;14.50;;;12.90;99.90;;;16.03;59.03;98264.28;5044153;28;20340;-49
2022/10/12 06:21:27;;;;;;;21.08;12.68;;;12.90;99.90;;;16.03;59.16;98265.16;5043584;28;20049;-49
2022/10/12 06:24:01;;;;;;;19.38;13.00;;;12.90;99.90;;;16.04;59.00;98272.19;5043649;28;20045;-51
2022/10/12 06:26:29;;;;;;;24.55;13.93;;;12.90;99.90;;;16.05;59.08;98270.31;5041781;28;20049;-49
2022/10/12 06:28:59;;;;;;;22.10;11.40;;;12.90;99.90;;;16.05;59.07;98273.00;5043107;28;20344;-52
2022/10/12 06:31:28;;;;;;;19.35;11.68;;;12.90;99.90;;;16.05;58.78;98273.00;5043163;28;20059;-53
2022/10/12 06:33:55;;;;;;;18.73;10.77;;;12.90;99.90;;;16.07;59.14;98282.56;5043241;28;20056;-54
2022/10/12 06:36:23;;;;;;;23.65;10.52;;;12.90;99.90;;;16.08;58.66;98278.03;5041924;28;20344;-51
2022/10/12 06:38:52;;;;;;;18.42;10.18;;;12.90;99.90;;;16.10;58.94;98276.00;5043121;28;20037;-50
2022/10/12 06:41:19;;;;;;;19.70;11.00;;;13.00;99.90;;;16.14;58.95;98274.63;5043092;28;20045;-53
2022/10/12 06:43:47;;;;;;;17.60;12.23;;;13.00;99.90;;;16.15;59.04;98278.97;5043124;28;20052;-49
2022/10/12 06:46:15;;;;;;;17.15;11.05;;;13.00;99.90;;;16.16;58.82;98279.81;5042914;28;20255;-50
2022/10/12 06:48:43;;;;;;;21.63;12.52;;;13.00;99.90;;;16.19;59.13;98280.28;5040997;28;20053;-51
2022/10/12 06:51:11;;;;;;;20.45;10.82;;;13.10;99.90;;;16.20;59.00;98276.56;5042005;28;20045;-53
2022/10/12 06:53:39;;;;;;;20.27;10.05;;;13.10;99.90;;;16.22;58.87;98279.91;5043045;28;20057;-51
2022/10/12 06:56:09;;;;;;;16.88;10.13;;;13.10;99.90;;;16.26;58.71;98269.63;5043236;28;20061;-52
2022/10/12 06:58:37;;;;;;;20.42;10.32;;;13.20;99.90;;;16.30;58.61;98279.84;5041557;28;20081;-52
2022/10/12 07:01:09;;;;;;;21.35;10.40;;;13.20;99.90;;;16.31;58.76;98278.00;5042821;28;20041;-52
2022/10/12 07:03:37;;;;;;;16.60;10.32;;;13.30;99.90;;;16.36;58.64;98277.44;5042193;28;20052;-50
2022/10/12 07:06:13;;;;;;;16.75;10.63;;;13.30;99.90;;;16.36;58.55;98278.25;5042681;28;20041;-53
2022/10/12 07:08:41;;;;;;;17.58;10.32;;;13.40;99.90;;;16.31;58.80;98281.50;5041881;28;20079;-50
2022/10/12 07:11:12;;;;;;;16.40;10.93;;;13.40;99.90;;;16.36;58.72;98285.50;5042644;28;20248;-53
2022/10/12 07:13:40;;;;;;;19.75;11.55;;;13.40;99.90;;;16.42;58.85;98280.25;5042664;28;20494;-53
2022/10/12 07:16:08;;;;;;;19.98;10.35;;;13.40;99.90;;;16.45;58.64;98282.53;5042456;28;20366;-51
2022/10/12 07:18:36;;;;;;;21.60;11.18;;;13.40;99.90;;;16.50;58.43;98287.38;5041827;28;20044;-49
2022/10/12 07:21:04;;;;;;;16.40;9.85;;;13.40;99.90;;;16.53;58.41;98281.63;5042394;28;20347;-51
2022/10/12 07:23:33;;;;;;;15.45;9.85;;;13.40;99.90;;;16.56;58.36;98291.19;5042426;28;20238;-50
2022/10/12 07:26:01;;;;;;;14.23;9.77;;;13.50;99.90;;;16.59;58.40;98286.25;5042340;28;20033;-54
2022/10/12 07:28:29;;;;;;;16.92;10.88;;;13.50;99.90;;;16.60;58.45;98282.56;5040984;28;20049;-52
2022/10/12 07:31:06;;;;;;;15.05;9.38;;;13.50;99.90;;;16.63;58.29;98287.56;5042417;28;20057;-53
2022/10/12 07:33:37;;;;;;;18.83;9.90;;;13.50;99.90;;;16.66;58.70;98278.31;5043154;28;20049;-50
2022/10/12 07:36:06;;;;;;;16.42;10.43;;;13.50;99.90;;;16.67;58.33;98283.50;5042114;28;20050;-48
2022/10/12 07:38:47;;;;;;;14.27;10.27;;;13.60;99.90;;;16.70;58.49;98274.22;5041993;28;20049;-50
2022/10/12 07:41:16;;;;;;;17.08;10.80;;;13.60;99.90;;;16.76;58.66;98280.72;5042243;28;20362;-53
2022/10/12 07:43:44;;;;;;;19.63;10.85;;;13.70;99.90;;;16.82;58.62;98282.69;5042293;28;20072;-58
2022/10/12 07:46:12;;;;;;;18.08;11.27;;;13.70;99.90;;;16.87;58.65;98285.69;5042056;28;20050;-51
2022/10/12 07:48:40;;;;;;;19.23;12.55;;;13.80;99.90;;;16.90;58.63;98286.16;5041756;28;20049;-51
2022/10/12 07:51:17;;;;;;;18.48;13.20;;;13.80;99.90;;;16.96;58.75;98281.03;5041844;28;20340;-51
2022/10/12 07:53:45;;;;;;;20.38;12.75;;;13.90;99.90;;;17.00;58.53;98275.09;5040943;28;20051;-52
2022/10/12 07:56:16;;;;;;;21.50;12.90;;;14.00;99.90;;;17.06;58.63;98278.88;5042504;28;20053;-50
2022/10/12 07:58:52;;;;;;;19.92;13.40;;;14.00;99.90;;;17.10;58.50;98282.88;5041437;28;20052;-48
2022/10/12 08:01:24;;;;;;;16.52;13.10;;;14.00;99.90;;;17.13;58.84;98277.13;5042092;28;20045;-47
2022/10/12 08:03:53;;;;;;;21.33;13.43;;;14.10;99.90;;;17.16;58.96;98279.44;5042047;28;20050;-47
2022/10/12 08:06:32;;;;;;;21.13;12.00;;;14.20;99.90;;;17.23;58.79;98280.34;5040570;28;20049;-52
2022/10/12 08:09:02;;;;;;;20.48;12.73;;;14.20;99.90;;;17.27;58.67;98289.72;5041889;28;20049;-48
2022/10/12 08:11:30;;;;;;;20.35;13.07;;;14.30;99.90;;;17.28;58.84;98288.69;5042252;28;20049;-47
2022/10/12 08:13:58;;;;;;;22.80;13.60;;;14.30;99.90;;;17.30;58.70;98291.19;5041739;28;20053;-53
2022/10/12 08:16:25;;;;;;;21.30;14.32;;;14.30;99.90;;;17.33;58.74;98285.41;5041533;28;20053;-49
2022/10/12 08:18:53;;;;;;;25.63;14.77;;;14.40;99.90;;;17.33;59.03;98290.81;5042898;28;20063;-55
2022/10/12 08:21:21;;;;;;;21.70;14.15;;;14.40;99.90;;;17.38;58.80;98293.78;5042521;28;20053;-51
2022/10/12 08:23:49;;;;;;;21.00;14.98;;;14.40;99.90;;;17.43;58.64;98291.34;5042514;28;20052;-49
2022/10/12 08:26:17;;;;;;;21.13;14.48;;;14.50;99.90;;;17.49;58.88;98287.91;5041766;28;20042;-51
2022/10/12 08:28:45;;;;;;;21.80;15.68;;;14.60;99.90;;;17.52;58.81;98292.06;5041462;28;20059;-52
2022/10/12 08:31:15;;;;;;;23.67;14.43;;;14.60;99.90;;;17.55;58.60;98289.00;5041508;28;20059;-51
2022/10/12 08:33:43;;;;;;;18.35;14.68;;;14.70;99.90;;;17.58;58.76;98291.28;5041819;28;20049;-54
2022/10/12 08:36:12;;;;;;;25.02;14.25;;;14.60;99.90;;;17.58;58.67;98288.59;5041713;28;20045;-52
2022/10/12 08:38:42;;;;;;;22.15;14.70;;;14.70;99.90;;;17.65;58.71;98294.91;5041220;28;20051;-47
2022/10/12 08:41:27;;;;;;;24.80;15.02;;;14.70;99.90;;;17.71;58.70;98283.38;5044461;28;20055;-53
2022/10/12 08:44:41;;;;;;;20.55;13.60;;;14.80;99.90;;;17.74;58.83;98284.00;5045307;28;20045;-49
2022/10/12 08:47:30;;;;;;;22.23;14.07;;;14.90;99.90;;;17.83;58.88;98282.88;5045012;28;20217;-52
2022/10/12 08:50:01;;;;;;;21.00;13.90;;;15.00;99.90;;;17.86;58.64;98291.44;5044096;28;20037;-53
2022/10/12 08:52:56;;;;;;;24.08;15.38;;;15.00;99.90;;;17.93;58.65;98282.56;5044207;28;20049;-48
2022/10/12 08:55:43;;;;;;;22.90;14.85;;;15.10;99.90;;;18.02;58.65;98286.81;5044455;28;20049;-47
2022/10/12 08:58:21;;;;;;;18.50;13.82;;;15.20;99.90;;;18.07;58.32;98285.22;5044757;28;20045;-54
2022/10/12 09:01:09;;;;;;;22.77;14.65;;;15.20;99.90;;;18.16;58.32;98283.19;5044170;28;20052;-52
2022/10/12 09:04:32;;;;;;;24.90;13.77;;;15.30;99.90;;;18.25;58.17;98278.50;5047526;28;20060;-48
2022/10/12 09:07:18;;;;;;;27.45;14.63;;;15.30;99.90;;;18.32;57.84;98279.41;5044671;28;20045;-53
2022/10/12 09:10:09;;;;;;;26.27;14.85;;;15.40;99.90;;;18.35;57.96;98284.41;5044865;28;20053;-54
2022/10/12 09:12:59;;;;;;;23.42;14.50;;;15.50;99.90;;;18.40;57.95;98286.53;5044856;28;20053;-50
2022/10/12 09:16:02;;;;;;;19.63;13.70;;;15.50;99.90;;;18.44;57.58;98283.22;5043885;28;20055;-49
2022/10/12 09:18:40;;;;;;;20.95;14.48;;;15.60;99.90;;;18.52;57.57;98276.84;5043224;28;20049;-47
2022/10/12 09:21:16;;;;;;;20.48;13.90;;;15.60;99.90;;;18.55;57.43;98278.31;5045764;28;20328;-47
2022/10/12 09:23:45;;;;;;;27.42;14.90;;;15.60;99.90;;;18.56;57.21;98282.69;5043730;28;20046;-48
2022/10/12 09:26:24;;;;;;;22.80;13.98;;;15.70;99.90;;;18.61;57.44;98285.59;5043582;28;20336;-50
2022/10/12 09:28:57;;;;;;;20.80;14.23;;;15.70;99.90;;;18.63;57.26;98283.53;5044557;28;20049;-48
2022/10/12 09:31:36;;;;;;;26.42;15.23;;;15.80;99.90;;;18.65;57.17;98287.72;5044351;28;20049;-50
2022/10/12 09:34:07;;;;;;;22.55;14.95;;;15.70;99.90;;;18.64;57.17;98288.75;5044805;28;20352;-50
2022/10/12 09:36:39;;;;;;;29.40;14.23;;;15.80;99.90;;;18.68;57.24;98289.19;5044095;28;20053;-47
2022/10/12 09:39:17;;;;;;;22.65;13.60;;;15.80;99.90;;;18.72;56.92;98290.47;5042438;28;20056;-49
2022/10/12 09:41:48;;;;;;;21.45;13.45;;;15.90;99.90;;;18.77;56.65;98295.28;5043336;28;20049;-47
2022/10/12 09:44:34;;;;;;;20.60;13.50;;;15.80;99.90;;;18.76;56.79;98297.13;5044408;28;20052;-50
2022/10/12 09:47:07;;;;;;;27.25;13.77;;;15.80;99.90;;;18.77;56.42;98303.38;5043849;28;20048;-53
2022/10/12 09:49:43;;;;;;;25.65;14.05;;;15.80;99.90;;;18.74;56.49;98296.50;5044241;28;20049;-47
2022/10/12 09:52:14;;;;;;;24.60;14.07;;;15.80;99.90;;;18.74;56.35;98296.50;5041024;28;20051;-48
2022/10/12 09:54:56;;;;;;;24.45;13.73;;;15.80;99.90;;;18.75;56.53;98298.16;5043134;28;20055;-50
2022/10/12 09:57:35;;;;;;;26.02;14.45;;;15.90;99.90;;;18.81;56.48;98299.28;5043648;28;20049;-48
2022/10/12 10:00:26;;;;;;;23.50;14.23;;;15.90;99.90;;;18.85;56.22;98303.25;5044025;28;20056;-52
2022/10/12 10:02:55;;;;;;;17.20;12.75;;;15.90;99.90;;;18.85;55.91;98297.84;5043901;28;20045;-48
2022/10/12 10:05:30;;;;;;;21.95;13.95;;;15.80;99.90;;;18.83;55.73;98294.50;5043725;28;20045;-50
2022/10/12 10:08:28;;;;;;;24.30;13.38;;;15.80;99.90;;;18.86;56.16;98292.25;5025870;28;20367;-48
2022/10/12 10:11:00;;;;;;;19.92;13.52;;;15.90;99.90;;;18.88;55.72;98284.78;5047446;28;20063;-49
2022/10/12 10:13:31;;;;;;;23.23;13.40;;;16.00;99.90;;;18.89;55.75;98291.84;5042792;28;20049;-53
2022/10/12 10:16:18;;;;;;;23.85;13.32;;;16.00;99.90;;;18.91;55.84;98286.25;5026457;28;20225;-47
2022/10/12 10:18:57;;;;;;;24.63;13.02;;;16.00;99.90;;;18.99;55.24;98287.97;5042243;28;20050;-49
2022/10/12 10:21:36;;;;;;;21.17;12.82;;;16.00;99.90;;;19.04;55.36;98290.91;5042537;28;20037;-47
2022/10/12 10:24:19;;;;;;;23.67;12.73;;;16.10;99.90;;;19.11;54.79;98280.94;5043689;28;20046;-52
2022/10/12 10:26:53;;;;;;;17.83;10.55;;;16.20;99.90;;;19.21;54.31;98294.06;5042085;28;20037;-52
2022/10/12 10:29:20;;;;;;;;;;;16.30;99.90;;;19.33;54.40;98295.19;5044379;28;20055;-49
2022/10/12 10:32:25;;;;;;;18.92;10.18;;;16.30;99.90;;;19.35;54.37;98287.72;5043447;28;19923;-52
2022/10/12 10:35:21;;;;;;;18.00;9.75;;;16.40;99.90;;;19.43;54.47;98289.41;5043445;28;20050;-50
2022/10/12 10:37:54;;;;;;;17.70;10.85;;;16.60;99.90;;;19.44;53.79;98283.81;5042919;28;20049;-49